Time;durP1;ratioP1;P1;durP2;ratioP2;P2;SDS_P1;SDS_P2;PMS_P1;PMS_P2;Temp;Humidity;BMP_temperature;BMP_pressure;BME280_temperature;BME280_humidity;BME280_pressure;Samples;Min_cycle;Max_cycle;Signal;HPM_P1;HPM_P2
2022/11/05 00:11:03;;;;;;;9.13;5.03;;;11.80;83.00;;;;;;5029281;28;20448;-68
2022/11/05 00:19:07;;;;;;;7.50;4.80;;;11.70;83.00;;;;;;5028831;28;20531;-69
2022/11/05 00:27:10;;;;;;;11.03;4.13;;;11.70;83.10;;;;;;5027349;28;20517;-67
2022/11/05 00:29:39;;;;;;;6.63;3.60;;;11.70;83.20;;;;;;5024897;28;20480;-69
2022/11/05 00:32:07;;;;;;;11.80;4.47;;;11.70;83.10;;;;;;5029710;28;20831;-69
2022/11/05 00:34:34;;;;;;;6.63;3.80;;;11.70;83.10;;;;;;5030146;28;20516;-68
2022/11/05 00:37:02;;;;;;;5.73;3.13;;;11.70;83.10;;;;;;5031277;28;20448;-68
2022/11/05 00:39:30;;;;;;;7.80;4.23;;;11.70;83.10;;;;;;5026862;28;20532;-67
2022/11/05 00:45:03;;;;;;;5.93;3.27;;;11.70;83.10;;;;;;5026196;28;20486;-68
2022/11/05 00:50:18;;;;;;;9.30;3.13;;;11.70;83.20;;;;;;5017205;28;21025;-68
2022/11/05 00:52:56;;;;;;;5.73;3.80;;;11.70;83.10;;;;;;5032151;28;20514;-68
2022/11/05 00:55:28;;;;;;;9.10;3.90;;;11.70;83.20;;;;;;5024987;28;20537;-68
2022/11/05 00:57:57;;;;;;;5.43;3.23;;;11.70;83.20;;;;;;5026843;28;20976;-67
2022/11/05 01:00:28;;;;;;;6.50;3.30;;;11.70;83.10;;;;;;5027885;28;20463;-69
2022/11/05 01:03:01;;;;;;;5.60;3.07;;;11.70;83.20;;;;;;5015075;28;20465;-68
2022/11/05 01:05:31;;;;;;;6.10;3.27;;;11.60;83.20;;;;;;5025662;28;20964;-67
2022/11/05 01:07:59;;;;;;;6.27;2.87;;;11.60;83.20;;;;;;5029744;28;20448;-68
2022/11/05 01:10:27;;;;;;;7.60;3.07;;;11.70;83.20;;;;;;5025924;28;20905;-68
2022/11/05 01:12:56;;;;;;;6.60;3.00;;;11.60;83.20;;;;;;5024566;28;20509;-69
2022/11/05 01:15:24;;;;;;;6.20;3.40;;;11.60;83.20;;;;;;5027753;28;20506;-67
2022/11/05 01:17:53;;;;;;;5.80;2.97;;;11.60;83.20;;;;;;5028231;28;20487;-67
2022/11/05 01:20:21;;;;;;;7.13;2.47;;;11.60;83.20;;;;;;5027973;28;20460;-68
2022/11/05 01:22:49;;;;;;;4.53;2.33;;;11.60;83.20;;;;;;5027556;28;20473;-67
2022/11/05 01:25:17;;;;;;;6.00;2.67;;;11.60;83.20;;;;;;5031341;28;20490;-67
2022/11/05 01:27:45;;;;;;;7.40;2.80;;;11.60;83.20;;;;;;5027627;28;20451;-67
2022/11/05 01:30:14;;;;;;;6.20;2.80;;;11.60;83.10;;;;;;5025541;28;20487;-68
2022/11/05 01:32:42;;;;;;;5.10;2.90;;;11.60;83.10;;;;;;5024843;28;20957;-68
2022/11/05 01:35:14;;;;;;;5.37;2.53;;;11.60;83.10;;;;;;5028670;28;20510;-68
2022/11/05 01:37:43;;;;;;;7.23;3.00;;;11.60;83.10;;;;;;5025866;28;20456;-68
2022/11/05 01:40:12;;;;;;;6.53;3.23;;;11.60;83.20;;;;;;5028389;28;20444;-67
2022/11/05 01:42:40;;;;;;;6.23;3.17;;;11.60;83.30;;;;;;5026850;28;20467;-68
2022/11/05 01:45:15;;;;;;;6.87;3.80;;;11.60;83.30;;;;;;5025532;28;20565;-68
2022/11/05 01:48:06;;;;;;;5.00;2.77;;;11.60;83.30;;;;;;5027015;28;20455;-68
2022/11/05 01:50:39;;;;;;;6.30;3.00;;;11.60;83.20;;;;;;5023578;28;20457;-68
2022/11/05 01:53:18;;;;;;;4.57;2.63;;;11.60;83.20;;;;;;5025733;28;20460;-68
2022/11/05 01:55:51;;;;;;;5.30;3.10;;;11.60;83.20;;;;;;5030929;28;20478;-69
2022/11/05 01:58:22;;;;;;;7.50;3.57;;;11.60;83.20;;;;;;5023725;28;20460;-68
2022/11/05 02:00:50;;;;;;;7.83;2.90;;;11.60;83.20;;;;;;5027086;28;20455;-68
2022/11/05 02:03:19;;;;;;;5.30;3.17;;;11.60;83.20;;;;;;5028945;28;20456;-68
2022/11/05 02:05:50;;;;;;;7.93;3.70;;;11.60;83.20;;;;;;5031968;28;20475;-69
2022/11/05 02:08:24;;;;;;;6.43;3.40;;;11.60;83.20;;;;;;5032659;28;20458;-68
2022/11/05 02:10:52;;;;;;;6.70;3.93;;;11.60;83.20;;;;;;5026514;28;20535;-68
2022/11/05 02:13:20;;;;;;;5.50;3.00;;;11.50;83.20;;;;;;5025618;28;20467;-68
2022/11/05 02:15:59;;;;;;;7.30;3.70;;;11.60;83.30;;;;;;5024590;28;20475;-68
2022/11/05 02:18:40;;;;;;;5.10;3.40;;;11.60;83.30;;;;;;5025368;28;20471;-68
2022/11/05 02:21:31;;;;;;;5.20;2.87;;;11.60;83.30;;;;;;5025715;28;20464;-68
2022/11/05 02:24:32;;;;;;;5.73;3.47;;;11.60;83.30;;;;;;5024408;28;20459;-67
2022/11/05 02:27:18;;;;;;;5.53;2.90;;;11.60;83.20;;;;;;5027800;28;20505;-67
2022/11/05 02:30:07;;;;;;;6.53;3.63;;;11.50;83.20;;;;;;5026785;28;20483;-67
2022/11/05 02:32:52;;;;;;;5.97;3.40;;;11.50;83.30;;;;;;5028335;28;20516;-67
2022/11/05 02:35:35;;;;;;;7.43;3.43;;;11.50;83.30;;;;;;5027280;28;21001;-68
2022/11/05 02:38:09;;;;;;;6.13;3.20;;;11.50;83.30;;;;;;5028380;28;20452;-68
2022/11/05 02:40:49;;;;;;;6.63;3.60;;;11.50;83.30;;;;;;5022796;28;21251;-66
2022/11/05 02:43:30;;;;;;;5.83;3.37;;;11.50;83.30;;;;;;5027696;28;20462;-68
2022/11/05 02:46:06;;;;;;;6.43;3.63;;;11.50;83.30;;;;;;5026475;28;20487;-68
2022/11/05 02:48:43;;;;;;;5.63;2.93;;;11.50;83.30;;;;;;5027298;28;21039;-68
2022/11/05 02:51:19;;;;;;;11.40;3.67;;;11.50;83.20;;;;;;5027153;28;20478;-68
2022/11/05 02:53:51;;;;;;;6.80;3.97;;;11.50;83.30;;;;;;5025176;28;20448;-69
2022/11/05 02:56:25;;;;;;;7.57;3.90;;;11.50;83.30;;;;;;5026910;28;20451;-68
2022/11/05 02:58:53;;;;;;;7.47;3.80;;;11.50;83.30;;;;;;5032477;28;20444;-69
2022/11/05 03:01:22;;;;;;;5.80;3.70;;;11.50;83.30;;;;;;5030890;28;20447;-68
2022/11/05 03:03:53;;;;;;;6.93;3.57;;;11.50;83.30;;;;;;5027933;28;20451;-68
2022/11/05 03:06:51;;;;;;;7.27;4.00;;;11.50;83.30;;;;;;5026987;28;20946;-68
2022/11/05 03:09:49;;;;;;;6.00;3.67;;;11.50;83.30;;;;;;5029688;28;20452;-68
2022/11/05 03:12:33;;;;;;;6.80;3.53;;;11.50;83.30;;;;;;5021457;28;20460;-68
2022/11/05 03:15:14;;;;;;;7.13;3.50;;;11.50;83.30;;;;;;5027133;28;22641;-68
2022/11/05 03:17:50;;;;;;;5.80;4.10;;;11.50;83.30;;;;;;5025416;28;20462;-68
2022/11/05 03:20:23;;;;;;;6.90;3.77;;;11.50;83.30;;;;;;5028770;28;20452;-68
2022/11/05 03:22:55;;;;;;;7.90;3.70;;;11.50;83.30;;;;;;5023558;28;20463;-68
2022/11/05 03:25:25;;;;;;;6.97;4.17;;;11.50;83.30;;;;;;5029451;28;21251;-68
2022/11/05 03:27:58;;;;;;;7.30;4.27;;;11.50;83.30;;;;;;5023846;28;20452;-68
2022/11/05 03:30:26;;;;;;;9.63;4.20;;;11.50;83.40;;;;;;5027288;28;20487;-68
2022/11/05 03:32:58;;;;;;;13.57;5.20;;;11.50;83.40;;;;;;5028537;28;20882;-67
2022/11/05 03:35:31;;;;;;;7.03;4.53;;;11.50;83.40;;;;;;5024871;28;20551;-67
2022/11/05 03:38:03;;;;;;;12.30;5.80;;;11.50;83.40;;;;;;5028689;28;20463;-67
2022/11/05 03:40:34;;;;;;;9.80;5.53;;;11.50;83.40;;;;;;5030759;28;20510;-68
2022/11/05 03:43:06;;;;;;;8.77;5.13;;;11.50;83.40;;;;;;5023690;28;20475;-67
2022/11/05 03:45:39;;;;;;;9.30;5.40;;;11.50;83.50;;;;;;5026381;28;20484;-68
2022/11/05 03:48:11;;;;;;;9.80;5.40;;;11.50;83.50;;;;;;5027463;28;20453;-68
2022/11/05 03:50:46;;;;;;;11.10;5.87;;;11.60;83.60;;;;;;5029283;28;20488;-68
2022/11/05 03:53:17;;;;;;;11.30;5.93;;;11.60;83.60;;;;;;5029823;28;20462;-68
2022/11/05 03:55:51;;;;;;;10.63;6.23;;;11.60;83.60;;;;;;5027593;28;20480;-67
2022/11/05 03:58:20;;;;;;;12.60;5.70;;;11.60;83.60;;;;;;5025420;28;20460;-67
2022/11/05 04:00:50;;;;;;;11.67;5.43;;;11.60;83.60;;;;;;5028740;28;20459;-66
2022/11/05 04:03:18;;;;;;;14.40;7.00;;;11.60;83.60;;;;;;5033864;28;20454;-68
2022/11/05 04:13:22;;;;;;;12.00;6.47;;;11.60;83.60;;;;;;5033074;28;20995;-70
2022/11/05 04:14:06;;;;;;;11.07;7.40;;;11.60;83.70;;;;;;5027631;28;20473;-67
2022/11/05 04:24:07;;;;;;;13.13;6.30;;;11.60;83.70;;;;;;5027982;28;20466;-67
2022/11/05 04:24:56;;;;;;;11.67;7.33;;;11.70;83.70;;;;;;5024330;28;20483;-67
2022/11/05 04:27:24;;;;;;;11.80;6.97;;;11.70;83.70;;;;;;5029074;28;20578;-67
2022/11/05 04:32:37;;;;;;;12.63;6.60;;;11.70;83.80;;;;;;5029030;28;20545;-68
2022/11/05 04:35:06;;;;;;;15.57;8.07;;;11.70;83.80;;;;;;5024080;28;20475;-67
2022/11/05 04:37:35;;;;;;;10.43;6.70;;;11.70;83.80;;;;;;5026572;28;20507;-67
2022/11/05 04:40:03;;;;;;;11.77;7.40;;;11.70;83.90;;;;;;5022636;28;20494;-67
2022/11/05 04:42:31;;;;;;;13.83;7.50;;;11.70;83.80;;;;;;5027467;28;20965;-67
2022/11/05 04:44:59;;;;;;;15.37;7.30;;;11.60;83.80;;;;;;5030514;28;20495;-69
2022/11/05 04:47:27;;;;;;;15.37;7.63;;;11.60;83.90;;;;;;5024583;28;20481;-68
2022/11/05 04:49:55;;;;;;;13.00;7.30;;;11.60;84.00;;;;;;5034273;28;20456;-67
2022/11/05 04:52:22;;;;;;;14.63;6.67;;;11.70;84.00;;;;;;5027050;28;20550;-68
2022/11/05 04:54:52;;;;;;;12.70;6.93;;;11.70;84.00;;;;;;5028617;28;20483;-67
2022/11/05 04:57:20;;;;;;;14.17;7.33;;;11.70;84.00;;;;;;5026268;28;20448;-67
2022/11/05 04:59:48;;;;;;;9.73;5.97;;;11.70;84.00;;;;;;5026930;28;20460;-67
2022/11/05 05:02:16;;;;;;;10.33;6.57;;;11.70;84.00;;;;;;5024862;28;20978;-68
2022/11/05 05:04:45;;;;;;;11.60;6.13;;;11.70;84.00;;;;;;5026940;28;20617;-68
2022/11/05 05:07:13;;;;;;;11.67;7.27;;;11.70;84.10;;;;;;5020647;28;20451;-69
2022/11/05 05:09:41;;;;;;;10.03;6.07;;;11.70;84.00;;;;;;5026900;28;21404;-68
2022/11/05 05:12:10;;;;;;;11.37;6.90;;;11.70;84.00;;;;;;5027627;28;20494;-68
2022/11/05 05:14:38;;;;;;;12.53;6.83;;;11.60;84.00;;;;;;5023105;28;20548;-67
2022/11/05 05:17:06;;;;;;;9.87;6.47;;;11.60;84.10;;;;;;5026968;28;20953;-67
2022/11/05 05:21:37;;;;;;;10.80;6.80;;;11.60;84.10;;;;;;5027701;28;21073;-67
2022/11/05 05:22:21;;;;;;;9.90;6.03;;;11.60;84.20;;;;;;5025096;28;20880;-67
2022/11/05 05:24:49;;;;;;;10.90;6.40;;;11.60;84.20;;;;;;5026802;28;20484;-67
2022/11/05 05:27:22;;;;;;;9.70;6.57;;;11.60;84.20;;;;;;5027456;28;20458;-66
2022/11/05 05:29:50;;;;;;;11.57;6.47;;;11.70;84.30;;;;;;5026118;28;20454;-67
2022/11/05 05:32:18;;;;;;;12.87;6.50;;;11.70;84.30;;;;;;5028668;28;20472;-67
2022/11/05 05:34:46;;;;;;;9.37;6.00;;;11.70;84.30;;;;;;5026286;28;20909;-67
2022/11/05 05:37:14;;;;;;;10.17;6.67;;;11.70;84.30;;;;;;5026550;28;20460;-68
2022/11/05 05:39:43;;;;;;;11.33;6.47;;;11.70;84.20;;;;;;5026741;28;20459;-69
2022/11/05 05:42:11;;;;;;;11.00;6.47;;;11.70;84.30;;;;;;5025856;28;21011;-68
2022/11/05 05:44:41;;;;;;;14.67;6.70;;;11.70;84.20;;;;;;5031754;28;20541;-68
2022/11/05 05:47:09;;;;;;;11.93;5.60;;;11.70;84.20;;;;;;5032705;28;20473;-69
2022/11/05 05:49:37;;;;;;;10.93;6.10;;;11.70;84.20;;;;;;5033583;28;20460;-68
2022/11/05 05:52:05;;;;;;;9.33;5.90;;;11.70;84.20;;;;;;5025692;28;21068;-66
2022/11/05 05:54:33;;;;;;;10.80;6.20;;;11.70;84.20;;;;;;5025709;28;20481;-67
2022/11/05 05:57:09;;;;;;;10.50;6.27;;;11.70;84.20;;;;;;5029684;28;20982;-67
2022/11/05 05:59:37;;;;;;;7.50;5.13;;;11.60;84.20;;;;;;5031560;28;20454;-67
2022/11/05 06:02:06;;;;;;;8.70;5.27;;;11.60;84.20;;;;;;5021339;28;21016;-67
2022/11/05 06:04:34;;;;;;;11.33;6.17;;;11.60;84.20;;;;;;5025217;28;20556;-67
2022/11/05 06:07:02;;;;;;;9.67;5.53;;;11.60;84.20;;;;;;5021278;28;20514;-67
2022/11/05 06:09:30;;;;;;;10.80;5.77;;;11.60;84.20;;;;;;5027902;28;20448;-67
2022/11/05 06:11:58;;;;;;;11.70;5.43;;;11.60;84.20;;;;;;5026146;28;20491;-67
2022/11/05 06:14:26;;;;;;;10.10;6.00;;;11.60;84.20;;;;;;5027538;28;20597;-67
2022/11/05 06:16:54;;;;;;;10.00;6.23;;;11.60;84.20;;;;;;5030536;28;20506;-68
2022/11/05 06:19:23;;;;;;;11.40;6.47;;;11.60;84.10;;;;;;5025841;28;20489;-68
2022/11/05 06:21:51;;;;;;;10.03;5.83;;;11.60;84.10;;;;;;5023542;28;20466;-68
2022/11/05 06:24:19;;;;;;;11.90;6.17;;;11.60;84.10;;;;;;5025867;28;21265;-67
2022/11/05 06:26:47;;;;;;;7.80;5.10;;;11.50;84.20;;;;;;5029002;28;20459;-67
2022/11/05 06:29:15;;;;;;;12.60;6.73;;;11.60;84.20;;;;;;5030245;28;20467;-67
2022/11/05 06:31:43;;;;;;;10.93;6.73;;;11.50;84.10;;;;;;5027848;28;20456;-68
2022/11/05 06:34:11;;;;;;;13.60;7.70;;;11.50;84.20;;;;;;5032638;28;20553;-68
2022/11/05 06:36:40;;;;;;;11.77;7.17;;;11.50;84.10;;;;;;5031724;28;20831;-67
2022/11/05 06:39:10;;;;;;;15.57;7.27;;;11.50;84.20;;;;;;5030069;28;20455;-67
2022/11/05 06:41:39;;;;;;;12.17;6.37;;;11.50;84.10;;;;;;5027807;28;20470;-68
2022/11/05 06:44:27;;;;;;;10.37;6.77;;;11.50;84.10;;;;;;5030808;28;20492;-67
2022/11/05 06:46:55;;;;;;;11.67;6.23;;;11.50;84.20;;;;;;5025774;28;20452;-67
2022/11/05 06:49:24;;;;;;;11.40;6.07;;;11.50;84.20;;;;;;5034643;28;20470;-68
2022/11/05 06:51:53;;;;;;;9.97;5.73;;;11.50;84.30;;;;;;5029071;28;21005;-67
2022/11/05 06:54:21;;;;;;;11.00;6.70;;;11.50;84.20;;;;;;5028567;28;20483;-67
2022/11/05 06:56:49;;;;;;;10.80;6.23;;;11.50;84.20;;;;;;5029687;28;20465;-67
2022/11/05 06:59:17;;;;;;;9.77;5.60;;;11.50;84.30;;;;;;5023523;28;20460;-68
2022/11/05 07:01:45;;;;;;;8.83;5.40;;;11.50;84.30;;;;;;5030736;28;20525;-67
2022/11/05 07:04:13;;;;;;;12.07;6.07;;;11.50;84.20;;;;;;5027793;28;20483;-67
2022/11/05 07:06:41;;;;;;;10.40;6.47;;;11.50;84.30;;;;;;5028462;28;20516;-67
2022/11/05 07:09:10;;;;;;;11.47;6.23;;;11.60;84.30;;;;;;5031305;28;20448;-67
2022/11/05 07:11:39;;;;;;;12.40;6.70;;;11.60;84.30;;;;;;5027030;28;20984;-68
2022/11/05 07:14:07;;;;;;;13.40;7.27;;;11.60;84.30;;;;;;5027220;28;20495;-67
2022/11/05 07:16:34;;;;;;;13.73;6.80;;;11.60;84.30;;;;;;5031664;28;20452;-67
2022/11/05 07:19:02;;;;;;;10.23;6.20;;;11.60;84.30;;;;;;5030294;28;20455;-68
2022/11/05 07:21:30;;;;;;;12.27;6.67;;;11.60;84.20;;;;;;5030963;28;20517;-67
2022/11/05 07:23:58;;;;;;;13.00;7.07;;;11.60;84.20;;;;;;5030888;28;20804;-67
2022/11/05 07:26:28;;;;;;;14.57;7.80;;;11.60;84.20;;;;;;5019711;28;20456;-67
2022/11/05 07:29:01;;;;;;;11.67;7.83;;;11.60;84.30;;;;;;5028805;28;20546;-67
2022/11/05 07:31:29;;;;;;;14.43;7.53;;;11.60;84.30;;;;;;5029251;28;20456;-67
2022/11/05 07:33:58;;;;;;;14.90;7.77;;;11.60;84.30;;;;;;5030989;28;21232;-67
2022/11/05 07:36:25;;;;;;;14.43;8.00;;;11.60;84.20;;;;;;5029342;28;20879;-67
2022/11/05 07:38:53;;;;;;;13.60;7.30;;;11.60;84.30;;;;;;5029592;28;20956;-67
2022/11/05 07:41:29;;;;;;;10.97;6.60;;;11.60;84.30;;;;;;5028819;28;20884;-66
2022/11/05 07:43:57;;;;;;;13.23;7.70;;;11.60;84.30;;;;;;5031010;28;20455;-67
2022/11/05 07:46:25;;;;;;;17.30;8.17;;;11.60;84.30;;;;;;5030474;28;20453;-68
2022/11/05 07:48:53;;;;;;;11.30;7.60;;;11.60;84.30;;;;;;5033657;28;20447;-68
2022/11/05 07:51:21;;;;;;;16.97;8.60;;;11.70;84.30;;;;;;5029513;28;20977;-69
2022/11/05 07:53:49;;;;;;;13.10;9.20;;;11.70;84.30;;;;;;5025049;28;20488;-68
2022/11/05 07:56:17;;;;;;;13.80;9.13;;;11.70;84.30;;;;;;5024352;28;20465;-68
2022/11/05 07:58:46;;;;;;;20.10;8.83;;;11.70;84.30;;;;;;5026790;28;20460;-69
2022/11/05 08:01:14;;;;;;;13.30;7.90;;;11.70;84.40;;;;;;5029645;28;20448;-69
2022/11/05 08:03:42;;;;;;;14.13;7.90;;;11.70;84.40;;;;;;5028763;28;20458;-67
2022/11/05 08:06:10;;;;;;;16.33;8.13;;;11.70;84.30;;;;;;5029344;28;20483;-68
2022/11/05 08:08:38;;;;;;;11.67;8.07;;;11.70;84.30;;;;;;5029279;28;20466;-68
2022/11/05 08:11:08;;;;;;;15.47;8.30;;;11.70;84.40;;;;;;5029690;28;20961;-68
2022/11/05 08:13:36;;;;;;;13.20;8.83;;;11.70;84.40;;;;;;5026541;28;20483;-69
2022/11/05 08:16:08;;;;;;;14.07;9.40;;;11.70;84.40;;;;;;5026158;28;20476;-68
2022/11/05 08:18:36;;;;;;;16.40;8.43;;;11.70;84.40;;;;;;5026776;28;20977;-67
2022/11/05 08:21:05;;;;;;;17.17;9.07;;;11.80;84.40;;;;;;5030234;28;20458;-68
2022/11/05 08:23:33;;;;;;;16.40;9.57;;;11.80;84.30;;;;;;5026669;28;20456;-67
2022/11/05 08:26:03;;;;;;;17.50;9.43;;;11.80;84.30;;;;;;5029194;28;20506;-68
2022/11/05 08:28:31;;;;;;;17.63;10.10;;;11.80;84.20;;;;;;5029763;28;20537;-68
2022/11/05 08:31:00;;;;;;;26.33;11.67;;;11.80;84.30;;;;;;5026197;28;20468;-68
2022/11/05 08:33:30;;;;;;;20.23;11.47;;;11.70;84.00;;;;;;5028647;28;20471;-69
2022/11/05 08:36:02;;;;;;;20.63;11.00;;;11.70;84.30;;;;;;5025204;28;20476;-68
2022/11/05 08:38:31;;;;;;;19.07;11.10;;;11.70;84.40;;;;;;5026169;28;20460;-68
2022/11/05 08:40:59;;;;;;;22.80;11.90;;;11.70;84.40;;;;;;5030130;28;20448;-68
2022/11/05 08:43:27;;;;;;;20.93;11.10;;;11.70;84.00;;;;;;5027899;28;21018;-68
2022/11/05 08:45:55;;;;;;;23.80;11.97;;;11.70;84.30;;;;;;5030029;28;21215;-68
2022/11/05 08:48:23;;;;;;;19.03;10.87;;;11.70;84.30;;;;;;5030241;28;20844;-69
2022/11/05 08:50:52;;;;;;;21.73;11.57;;;11.70;84.30;;;;;;5028760;28;20977;-67
2022/11/05 08:53:21;;;;;;;19.70;11.63;;;11.80;84.40;;;;;;5026338;28;21049;-68
2022/11/05 08:55:50;;;;;;;17.20;10.40;;;11.80;84.40;;;;;;5024141;28;21259;-68
2022/11/05 08:58:19;;;;;;;18.10;8.97;;;11.80;84.50;;;;;;5023274;28;20451;-68
2022/11/05 09:00:49;;;;;;;18.83;10.03;;;11.90;84.60;;;;;;5023956;28;20465;-69
2022/11/05 09:03:17;;;;;;;22.23;11.57;;;12.00;84.60;;;;;;5023518;28;20440;-68
2022/11/05 09:05:45;;;;;;;22.37;11.20;;;12.00;84.60;;;;;;5028338;28;20479;-67
2022/11/05 09:08:17;;;;;;;22.53;10.67;;;12.10;84.60;;;;;;5027661;28;20444;-67
2022/11/05 09:10:45;;;;;;;23.63;12.47;;;12.20;84.60;;;;;;5024917;28;20447;-68
2022/11/05 09:13:14;;;;;;;20.57;12.77;;;12.20;84.60;;;;;;5024934;28;20479;-68
2022/11/05 09:15:47;;;;;;;20.70;11.77;;;12.30;84.50;;;;;;5028032;28;20533;-68
2022/11/05 09:18:16;;;;;;;22.70;12.00;;;12.30;84.40;;;;;;5025375;28;21012;-68
2022/11/05 09:20:44;;;;;;;20.30;11.53;;;12.30;84.40;;;;;;5025300;28;20463;-68
2022/11/05 09:23:15;;;;;;;19.43;11.40;;;12.40;84.20;;;;;;5023756;28;20449;-68
2022/11/05 09:25:43;;;;;;;18.23;10.80;;;12.40;84.10;;;;;;5027799;28;20469;-68
2022/11/05 09:28:12;;;;;;;23.80;12.47;;;12.30;83.90;;;;;;5031775;28;21161;-68
2022/11/05 09:30:45;;;;;;;18.97;12.10;;;12.30;83.90;;;;;;5023654;28;20448;-68
2022/11/05 09:33:13;;;;;;;19.10;11.37;;;12.30;83.90;;;;;;5027760;28;20452;-68
2022/11/05 09:35:42;;;;;;;18.67;11.30;;;12.30;83.90;;;;;;5025814;28;20475;-68
2022/11/05 09:38:10;;;;;;;20.27;10.97;;;12.30;83.90;;;;;;5025158;28;20502;-68
2022/11/05 09:40:44;;;;;;;20.43;12.20;;;12.30;83.80;;;;;;5025195;28;20456;-67
2022/11/05 09:43:18;;;;;;;24.07;11.33;;;12.30;83.80;;;;;;5026919;28;20474;-67
2022/11/05 09:45:50;;;;;;;21.57;12.10;;;12.20;83.90;;;;;;5028260;28;20817;-68
2022/11/05 09:48:23;;;;;;;22.53;11.43;;;12.30;83.90;;;;;;5027589;28;20456;-68
2022/11/05 09:50:52;;;;;;;21.77;12.57;;;12.30;83.80;;;;;;5025684;28;20987;-68
2022/11/05 09:53:23;;;;;;;20.17;11.87;;;12.30;83.80;;;;;;5024899;28;20457;-68
2022/11/05 09:55:56;;;;;;;23.00;11.93;;;12.30;83.80;;;;;;5025031;28;20479;-68
2022/11/05 09:58:34;;;;;;;19.27;11.10;;;12.30;83.50;;;;;;5028526;28;20448;-68
2022/11/05 10:01:04;;;;;;;18.87;11.57;;;12.30;83.60;;;;;;5025599;28;20464;-67
2022/11/05 10:03:38;;;;;;;19.33;11.00;;;12.30;83.60;;;;;;5024420;28;20448;-68
2022/11/05 10:06:09;;;;;;;18.97;10.57;;;12.30;83.50;;;;;;5027578;28;20468;-68
2022/11/05 10:08:42;;;;;;;20.43;11.63;;;12.30;83.60;;;;;;5018578;28;20476;-68
2022/11/05 10:11:17;;;;;;;21.13;12.60;;;12.30;83.50;;;;;;5029026;28;20478;-68
2022/11/05 10:13:47;;;;;;;18.57;10.97;;;12.30;83.40;;;;;;5024939;28;21179;-68
2022/11/05 10:16:23;;;;;;;21.90;11.83;;;12.30;83.50;;;;;;5025836;28;20874;-68
2022/11/05 10:18:57;;;;;;;23.93;12.77;;;12.40;83.60;;;;;;5027087;28;20459;-68
2022/11/05 10:21:25;;;;;;;24.30;11.10;;;12.40;83.50;;;;;;5042977;28;20459;-67
2022/11/05 10:24:16;;;;;;;17.30;11.40;;;12.40;83.40;;;;;;5030992;28;20488;-68
2022/11/05 10:26:48;;;;;;;18.30;11.93;;;12.40;83.20;;;;;;5027581;28;20447;-68
2022/11/05 10:29:22;;;;;;;21.27;12.20;;;12.40;83.30;;;;;;5028400;28;20463;-68
2022/11/05 10:31:53;;;;;;;20.83;13.03;;;12.40;83.30;;;;;;5026982;28;20467;-67
2022/11/05 10:34:22;;;;;;;23.63;12.93;;;12.40;83.40;;;;;;5025408;28;20495;-68
2022/11/05 10:36:50;;;;;;;21.13;12.00;;;12.40;83.40;;;;;;5024535;28;20453;-68
2022/11/05 10:39:19;;;;;;;20.20;12.07;;;12.40;83.40;;;;;;5043751;28;21014;-68
2022/11/05 10:42:04;;;;;;;20.10;12.00;;;12.40;83.40;;;;;;5026229;28;20467;-68
2022/11/05 10:44:37;;;;;;;23.87;11.40;;;12.50;83.40;;;;;;5025417;28;20479;-68
2022/11/05 10:47:27;;;;;;;20.53;12.37;;;12.50;83.50;;;;;;5028338;28;20463;-68
2022/11/05 10:49:58;;;;;;;17.57;10.10;;;12.60;83.50;;;;;;5028245;28;20805;-68
2022/11/05 10:52:33;;;;;;;18.90;11.00;;;12.60;83.40;;;;;;5026664;28;20470;-68
2022/11/05 10:55:06;;;;;;;16.33;8.73;;;12.60;83.40;;;;;;5027532;28;20491;-67
2022/11/05 10:57:38;;;;;;;20.40;9.50;;;12.70;83.40;;;;;;5027407;28;20460;-68
2022/11/05 11:00:23;;;;;;;16.50;9.43;;;12.70;83.50;;;;;;5025838;28;20444;-68
2022/11/05 11:02:54;;;;;;;17.70;9.67;;;12.70;83.40;;;;;;5021668;28;20897;-68
2022/11/05 11:05:25;;;;;;;15.73;8.73;;;12.80;83.30;;;;;;5026801;28;20829;-68
2022/11/05 11:07:57;;;;;;;23.70;16.60;;;12.80;83.20;;;;;;5022423;28;20973;-68
2022/11/05 11:10:26;;;;;;;18.77;13.13;;;12.80;83.20;;;;;;5023632;28;20512;-68
2022/11/05 11:12:57;;;;;;;17.30;10.70;;;12.80;83.10;;;;;;5025782;28;20522;-68
2022/11/05 11:15:27;;;;;;;15.97;9.30;;;12.80;83.00;;;;;;5027403;28;20484;-68
2022/11/05 11:17:56;;;;;;;18.60;10.30;;;12.80;82.90;;;;;;5027452;28;20967;-68
2022/11/05 11:20:27;;;;;;;20.30;10.50;;;12.80;82.80;;;;;;5026892;28;20464;-68
2022/11/05 11:23:00;;;;;;;16.90;11.77;;;12.80;82.70;;;;;;5027322;28;20498;-68
2022/11/05 11:25:31;;;;;;;17.13;8.20;;;12.80;82.60;;;;;;5027511;28;20468;-68
2022/11/05 11:28:05;;;;;;;17.13;9.33;;;12.80;82.70;;;;;;5031837;28;20482;-68
2022/11/05 11:30:34;;;;;;;18.30;10.53;;;12.80;82.50;;;;;;5032568;28;20928;-68
2022/11/05 11:33:07;;;;;;;17.10;10.20;;;12.80;82.40;;;;;;5027454;28;20463;-68
2022/11/05 11:35:38;;;;;;;14.43;9.27;;;12.80;82.50;;;;;;5028552;28;20489;-68
2022/11/05 11:38:10;;;;;;;15.73;9.70;;;12.80;82.50;;;;;;5028422;28;20456;-68
2022/11/05 11:40:39;;;;;;;17.50;10.93;;;12.80;82.50;;;;;;5031811;28;20521;-68
2022/11/05 11:43:18;;;;;;;13.90;8.90;;;12.80;82.40;;;;;;5029879;28;20471;-68
2022/11/05 11:45:49;;;;;;;19.50;9.67;;;12.80;82.40;;;;;;5026448;28;20481;-68
2022/11/05 11:48:19;;;;;;;16.60;9.47;;;12.80;82.40;;;;;;5026577;28;20490;-68
2022/11/05 11:50:48;;;;;;;14.93;8.70;;;12.80;82.30;;;;;;5027450;28;20579;-68
2022/11/05 11:53:33;;;;;;;15.33;9.73;;;12.70;82.40;;;;;;5025373;28;20455;-68
2022/11/05 11:56:05;;;;;;;19.00;9.63;;;12.80;82.30;;;;;;5029194;28;20488;-68
2022/11/05 11:58:40;;;;;;;14.00;8.80;;;12.70;82.40;;;;;;5031404;28;20512;-69
2022/11/05 12:01:36;;;;;;;17.00;9.53;;;12.70;82.30;;;;;;5027962;28;20478;-68
2022/11/05 12:04:21;;;;;;;18.80;9.47;;;12.70;82.20;;;;;;5028215;28;20897;-68
2022/11/05 12:06:58;;;;;;;14.57;8.67;;;12.70;82.20;;;;;;5028185;28;20466;-69
2022/11/05 12:09:39;;;;;;;15.27;8.47;;;12.70;82.30;;;;;;5027363;28;20464;-68
2022/11/05 12:12:11;;;;;;;13.13;7.60;;;12.70;82.50;;;;;;5027253;28;20447;-68
2022/11/05 12:14:51;;;;;;;17.13;8.33;;;12.80;82.60;;;;;;5025671;28;20486;-68
2022/11/05 12:17:41;;;;;;;16.60;9.47;;;12.80;82.50;;;;;;5027434;28;20461;-68
2022/11/05 12:20:28;;;;;;;16.20;8.53;;;12.90;82.30;;;;;;5027997;28;20459;-68
2022/11/05 12:23:24;;;;;;;17.33;9.37;;;12.80;82.10;;;;;;5025936;28;20993;-68
2022/11/05 12:25:59;;;;;;;12.40;7.00;;;12.80;82.10;;;;;;5023238;28;20483;-68
2022/11/05 12:28:57;;;;;;;16.20;9.00;;;12.80;82.20;;;;;;5025552;28;20447;-68
2022/11/05 12:31:54;;;;;;;12.97;7.90;;;12.90;82.00;;;;;;5027712;28;20449;-68
2022/11/05 12:34:35;;;;;;;18.23;8.27;;;12.90;82.00;;;;;;5031084;28;20479;-68
2022/11/05 12:37:19;;;;;;;14.47;8.17;;;12.90;82.10;;;;;;5027397;28;20449;-68
2022/11/05 12:40:02;;;;;;;17.10;8.03;;;12.90;82.00;;;;;;5023202;28;20486;-68
2022/11/05 12:42:43;;;;;;;16.13;7.80;;;12.90;82.00;;;;;;5025348;28;20467;-68
2022/11/05 12:45:26;;;;;;;15.97;8.13;;;13.00;82.00;;;;;;5024323;28;20475;-68
2022/11/05 12:48:13;;;;;;;21.40;8.80;;;13.00;82.00;;;;;;5021484;28;20448;-67
2022/11/05 12:50:45;;;;;;;14.80;8.37;;;13.00;82.00;;;;;;5031482;28;20515;-68
2022/11/05 12:53:57;;;;;;;22.17;10.10;;;13.00;81.90;;;;;;5030587;28;20452;-67
2022/11/05 12:56:32;;;;;;;14.87;9.23;;;13.00;81.90;;;;;;4977348;28;20485;-69
2022/11/05 12:59:06;;;;;;;35.63;9.73;;;13.00;81.90;;;;;;5020554;28;20553;-69
2022/11/05 13:01:36;;;;;;;25.37;8.03;;;13.10;81.80;;;;;;5026285;28;20984;-69
2022/11/05 13:04:14;;;;;;;79.17;13.00;;;13.10;81.80;;;;;;5032130;28;20467;-68
2022/11/05 13:06:46;;;;;;;44.73;11.57;;;13.10;81.80;;;;;;5025726;28;20456;-68
2022/11/05 13:09:19;;;;;;;23.30;9.10;;;13.10;81.80;;;;;;5022844;28;20455;-68
2022/11/05 13:11:53;;;;;;;19.50;8.90;;;13.10;81.70;;;;;;5029297;28;20447;-67
2022/11/05 13:14:25;;;;;;;18.63;8.57;;;13.20;81.70;;;;;;5027051;28;20486;-67
2022/11/05 13:16:59;;;;;;;15.20;7.83;;;13.20;81.60;;;;;;5030571;28;20482;-67
2022/11/05 13:19:33;;;;;;;22.40;8.97;;;13.20;81.60;;;;;;5025434;28;20585;-67
2022/11/05 13:22:08;;;;;;;14.63;7.20;;;13.20;81.60;;;;;;5028333;28;20452;-68
2022/11/05 13:24:40;;;;;;;11.93;7.77;;;13.20;81.70;;;;;;5028717;28;20471;-69
2022/11/05 13:27:38;;;;;;;11.40;6.43;;;13.30;81.70;;;;;;5024754;28;20452;-68
2022/11/05 13:30:12;;;;;;;14.43;7.43;;;13.30;81.50;;;;;;5026218;28;20479;-68
2022/11/05 13:32:45;;;;;;;16.90;7.47;;;13.30;81.40;;;;;;5021059;28;20475;-68
2022/11/05 13:35:24;;;;;;;19.37;8.10;;;13.40;81.30;;;;;;5023990;28;20472;-68
2022/11/05 13:40:48;;;;;;;16.17;7.20;;;13.40;81.40;;;;;;5027877;28;20459;-68
2022/11/05 13:43:43;;;;;;;35.40;8.73;;;13.50;81.50;;;;;;5024273;28;20525;-67
2022/11/05 13:46:25;;;;;;;68.27;11.50;;;13.50;81.40;;;;;;5019608;28;21390;-68
2022/11/05 13:49:29;;;;;;;76.63;12.03;;;13.60;81.30;;;;;;5025818;28;21238;-69